Aviation Digital Data Service (ADDS)

Output produced by METARs form (1700 UTC 17 October 2017)
found at http://aviationweather.gov/adds/metars/
 
KGNV 171530Z 1716/1812 03012G22KT P6SM SCT015 SCT025 
     FM172100 04011G17KT P6SM SCT025 BKN040 
     FM180000 03008KT P6SM SCT025